Thunder radar more information blitzortung!


Radar de pluja more information rain snow radar


Visita la nostra xarxa de llocs de meteo:

Template documentation
and downloads

And another site



No particular awareness of the weather is required.    There are no Weather-warnings

Pagina Historial Weather Underground text

Diari Resum Juny 7, 2017 Unitats:  Tant    Imperial   Mètric
« Previous Dia
SegĂźent Dia »
Diari Setmana Mensual Anual Personalitzada
  Maxima: Minima: Media:
Temperatura: 76.3 °F /  24.6 °C 62.8 °F /  17.1 °C 68.4 °F /  20.2 °C
Punt de rosada: 58.5 °F /  14.7 °C 47.5 °F /  8.6 °C 55 °F /  12.8 °C
Humitat: 81 % 51 % 63 %
Wind Speed: 10.4 mph /  16.7 km/h - 4.1 mph /  6.6 km/h
RĂ fegues de vent: 10.4 mph /  16.7 km/h - -
Vent:- - SSW
Pression baro: 30.2 in /  1021.9 hPa 30.1 in /  1017.8 hPa -
Precipitacions: 0 in /  0.0 mm    
Historical Graphs
 
 
Dades de taula per Juny 7, 2017
Temps Temperatura Punt de rosada Pression baro Vent Wind Speed RĂ fegues de vent Humitat Rainfall Rate (Hourly)
00:03 66.2 °F /  19.0 °C 57.4 °F /  14.1 °C 30.1 in /  1017.8 hPa SSE 2.3 mph /  3.7 km/h 2.3 mph /  3.7 km/h 73 % 0 in /  0.0 mm
00:05 62.8 °F /  17.1 °C 56.5 °F /  13.6 °C 30.1 in /  1018.8 hPa SSW 2 mph /  3.2 km/h 2 mph /  3.2 km/h 80 % 0 in /  0.0 mm
00:08 66.2 °F /  19.0 °C 57.4 °F /  14.1 °C 30.1 in /  1017.8 hPa ESE 3.5 mph /  5.6 km/h 3.5 mph /  5.6 km/h 73 % 0 in /  0.0 mm
00:15 62.8 °F /  17.1 °C 56.5 °F /  13.6 °C 30.1 in /  1018.8 hPa SW 2 mph /  3.2 km/h 4 mph /  6.4 km/h 80 % 0 in /  0.0 mm
00:25 63 °F /  17.2 °C 57 °F /  13.9 °C 30.1 in /  1018.8 hPa SW 1 mph /  1.6 km/h 2 mph /  3.2 km/h 81 % 0 in /  0.0 mm
00:35 63 °F /  17.2 °C 57 °F /  13.9 °C 30.1 in /  1018.8 hPa SW 1 mph /  1.6 km/h 2 mph /  3.2 km/h 81 % 0 in /  0.0 mm
00:45 63.1 °F /  17.3 °C 57.2 °F /  14.0 °C 30.1 in /  1019.9 hPa SW 1 mph /  1.6 km/h 3 mph /  4.8 km/h 81 % 0 in /  0.0 mm
00:55 63.1 °F /  17.3 °C 57.2 °F /  14.0 °C 30.1 in /  1019.9 hPa SW 1 mph /  1.6 km/h 3 mph /  4.8 km/h 81 % 0 in /  0.0 mm
01:05 63.1 °F /  17.3 °C 57.2 °F /  14.0 °C 30.1 in /  1019.9 hPa SW 1 mph /  1.6 km/h 1 mph /  1.6 km/h 81 % 0 in /  0.0 mm
01:15 63.1 °F /  17.3 °C 57.2 °F /  14.0 °C 30.1 in /  1019.9 hPa SW 1 mph /  1.6 km/h 3 mph /  4.8 km/h 81 % 0 in /  0.0 mm
01:25 63.5 °F /  17.5 °C 57.6 °F /  14.2 °C 30.1 in /  1019.9 hPa SW 1 mph /  1.6 km/h 2 mph /  3.2 km/h 81 % 0 in /  0.0 mm
01:35 63.1 °F /  17.3 °C 56.1 °F /  13.4 °C 30.1 in /  1019.9 hPa WSW 2 mph /  3.2 km/h 4 mph /  6.4 km/h 78 % 0 in /  0.0 mm
01:45 63.1 °F /  17.3 °C 55 °F /  12.8 °C 30.1 in /  1019.9 hPa WSW 3 mph /  4.8 km/h 4 mph /  6.4 km/h 75 % 0 in /  0.0 mm
01:55 62.8 °F /  17.1 °C 53.2 °F /  11.8 °C 30.1 in /  1019.9 hPa West 1 mph /  1.6 km/h 3 mph /  4.8 km/h 71 % 0 in /  0.0 mm
02:05 63 °F /  17.2 °C 52.2 °F /  11.2 °C 30.1 in /  1019.9 hPa WNW 2 mph /  3.2 km/h 4 mph /  6.4 km/h 68 % 0 in /  0.0 mm
02:15 63.3 °F /  17.4 °C 52.2 °F /  11.2 °C 30.1 in /  1019.9 hPa WNW 3 mph /  4.8 km/h 5 mph /  8.0 km/h 67 % 0 in /  0.0 mm
02:25 63 °F /  17.2 °C 51.1 °F /  10.6 °C 30.1 in /  1019.9 hPa West 3 mph /  4.8 km/h 4 mph /  6.4 km/h 65 % 0 in /  0.0 mm
02:35 63 °F /  17.2 °C 50.5 °F /  10.3 °C 30.1 in /  1019.9 hPa West 2 mph /  3.2 km/h 3 mph /  4.8 km/h 64 % 0 in /  0.0 mm
02:45 63.9 °F /  17.7 °C 51.1 °F /  10.6 °C 30.2 in /  1020.9 hPa West 2 mph /  3.2 km/h 2 mph /  3.2 km/h 63 % 0 in /  0.0 mm
02:55 64.8 °F /  18.2 °C 51.4 °F /  10.8 °C 30.1 in /  1019.9 hPa West 2 mph /  3.2 km/h 4 mph /  6.4 km/h 62 % 0 in /  0.0 mm
03:05 64.4 °F /  18.0 °C 50.7 °F /  10.4 °C 30.1 in /  1019.9 hPa West 1 mph /  1.6 km/h 5 mph /  8.0 km/h 61 % 0 in /  0.0 mm
03:15 64.6 °F /  18.1 °C 50.4 °F /  10.2 °C 30.2 in /  1020.9 hPa West 2 mph /  3.2 km/h 3 mph /  4.8 km/h 60 % 0 in /  0.0 mm
03:25 64.8 °F /  18.2 °C 50.2 °F /  10.1 °C 30.2 in /  1020.9 hPa West 3 mph /  4.8 km/h 4 mph /  6.4 km/h 59 % 0 in /  0.0 mm
03:35 65.1 °F /  18.4 °C 50.4 °F /  10.2 °C 30.2 in /  1020.9 hPa West 2 mph /  3.2 km/h 3 mph /  4.8 km/h 59 % 0 in /  0.0 mm
03:45 65.3 °F /  18.5 °C 49.6 °F /  9.8 °C 30.2 in /  1020.9 hPa WSW 3 mph /  4.8 km/h 3 mph /  4.8 km/h 57 % 0 in /  0.0 mm
03:55 65.3 °F /  18.5 °C 48.7 °F /  9.3 °C 30.2 in /  1021.9 hPa West 5 mph /  8.0 km/h 5 mph /  8.0 km/h 55 % 0 in /  0.0 mm
04:05 65.1 °F /  18.4 °C 48 °F /  8.9 °C 30.2 in /  1021.9 hPa West 1 mph /  1.6 km/h 3 mph /  4.8 km/h 54 % 0 in /  0.0 mm
04:15 65.5 °F /  18.6 °C 48.4 °F /  9.1 °C 30.2 in /  1021.9 hPa West 1 mph /  1.6 km/h 2 mph /  3.2 km/h 54 % 0 in /  0.0 mm
04:25 65.7 °F /  18.7 °C 48 °F /  8.9 °C 30.2 in /  1021.9 hPa WSW 2 mph /  3.2 km/h 2 mph /  3.2 km/h 53 % 0 in /  0.0 mm
04:35 65.7 °F /  18.7 °C 48.6 °F /  9.2 °C 30.2 in /  1021.9 hPa Calm   2 mph /  3.2 km/h 54 % 0 in /  0.0 mm
04:45 65.7 °F /  18.7 °C 48 °F /  8.9 °C 30.2 in /  1021.9 hPa WSW 1 mph /  1.6 km/h 2 mph /  3.2 km/h 53 % 0 in /  0.0 mm
04:55 66.2 °F /  19.0 °C 48 °F /  8.9 °C 30.2 in /  1021.9 hPa WSW 2 mph /  3.2 km/h 3 mph /  4.8 km/h 52 % 0 in /  0.0 mm
05:05 66.2 °F /  19.0 °C 47.5 °F /  8.6 °C 30.2 in /  1021.9 hPa SSW 1 mph /  1.6 km/h 3 mph /  4.8 km/h 51 % 0 in /  0.0 mm
05:15 66.9 °F /  19.4 °C 48.7 °F /  9.3 °C 30.2 in /  1021.9 hPa Calm   1 mph /  1.6 km/h 52 % 0 in /  0.0 mm
05:25 66.9 °F /  19.4 °C 48.7 °F /  9.3 °C 30.2 in /  1021.9 hPa SSW 1 mph /  1.6 km/h 4 mph /  6.4 km/h 52 % 0 in /  0.0 mm
05:35 67.1 °F /  19.5 °C 49.5 °F /  9.7 °C 30.2 in /  1021.9 hPa Calm   1 mph /  1.6 km/h 53 % 0 in /  0.0 mm
10:36 67.1 °F /  19.5 °C 49.5 °F /  9.7 °C 30.2 in /  1021.9 hPa South 2.4 mph /  3.9 km/h 2.4 mph /  3.9 km/h 53 % 0 in /  0.0 mm
10:41 66.6 °F /  19.2 °C 48.9 °F /  9.4 °C 30.2 in /  1021.9 hPa WSW 3.5 mph /  5.6 km/h 3.5 mph /  5.6 km/h 53 % 0 in /  0.0 mm
10:46 66.4 °F /  19.1 °C 49.3 °F /  9.6 °C 30.2 in /  1021.9 hPa WSW 2.3 mph /  3.7 km/h 2.3 mph /  3.7 km/h 54 % 0 in /  0.0 mm
10:51 66.4 °F /  19.1 °C 48.7 °F /  9.3 °C 30.2 in /  1020.9 hPa SSW 2.3 mph /  3.7 km/h 2.3 mph /  3.7 km/h 53 % 0 in /  0.0 mm
10:56 66.4 °F /  19.1 °C 49.3 °F /  9.6 °C 30.2 in /  1020.9 hPa SW 2.3 mph /  3.7 km/h 2.3 mph /  3.7 km/h 54 % 0 in /  0.0 mm
11:01 66.6 °F /  19.2 °C 49.5 °F /  9.7 °C 30.2 in /  1020.9 hPa SW 1.4 mph /  2.3 km/h   54 % 0 in /  0.0 mm
11:06 66.4 °F /  19.1 °C 49.6 °F /  9.8 °C 30.2 in /  1020.9 hPa South 2.3 mph /  3.7 km/h 2.3 mph /  3.7 km/h 55 % 0 in /  0.0 mm
11:11 66 °F /  18.9 °C 49.8 °F /  9.9 °C 30.2 in /  1020.9 hPa SW 3.5 mph /  5.6 km/h 3.5 mph /  5.6 km/h 56 % 0 in /  0.0 mm
11:16 65.8 °F /  18.8 °C 50.2 °F /  10.1 °C 30.2 in /  1020.9 hPa SW 3.3 mph /  5.3 km/h 3.3 mph /  5.3 km/h 57 % 0 in /  0.0 mm
11:21 65.8 °F /  18.8 °C 50.2 °F /  10.1 °C 30.2 in /  1020.9 hPa SW 2.3 mph /  3.7 km/h 2.3 mph /  3.7 km/h 57 % 0 in /  0.0 mm
11:26 65.7 °F /  18.7 °C 50.5 °F /  10.3 °C 30.2 in /  1020.9 hPa SW 3.5 mph /  5.6 km/h 3.5 mph /  5.6 km/h 58 % 0 in /  0.0 mm
11:31 65.3 °F /  18.5 °C 51.1 °F /  10.6 °C 30.2 in /  1020.9 hPa SW 5.8 mph /  9.3 km/h 5.8 mph /  9.3 km/h 60 % 0 in /  0.0 mm
11:36 65.1 °F /  18.4 °C 51.3 °F /  10.7 °C 30.2 in /  1021.9 hPa SW 2.6 mph /  4.2 km/h 2.9 mph /  4.7 km/h 61 % 0 in /  0.0 mm
11:41 65.5 °F /  18.6 °C 52.2 °F /  11.2 °C 30.2 in /  1021.9 hPa SW 2.9 mph /  4.7 km/h 2.9 mph /  4.7 km/h 62 % 0 in /  0.0 mm
11:46 66.2 °F /  19.0 °C 52.9 °F /  11.6 °C 30.2 in /  1021.9 hPa SW 3.5 mph /  5.6 km/h 3.5 mph /  5.6 km/h 62 % 0 in /  0.0 mm
11:51 66.7 °F /  19.3 °C 53.8 °F /  12.1 °C 30.2 in /  1021.9 hPa SSE 2.2 mph /  3.5 km/h 2.2 mph /  3.5 km/h 63 % 0 in /  0.0 mm
11:56 67.1 °F /  19.5 °C 54.1 °F /  12.3 °C 30.2 in /  1021.9 hPa South 2.3 mph /  3.7 km/h 2.3 mph /  3.7 km/h 63 % 0 in /  0.0 mm
12:01 67.1 °F /  19.5 °C 54.5 °F /  12.5 °C 30.2 in /  1021.9 hPa SW 3.3 mph /  5.3 km/h 3.3 mph /  5.3 km/h 64 % 0 in /  0.0 mm
12:06 67.8 °F /  19.9 °C 54.9 °F /  12.7 °C 30.2 in /  1021.9 hPa SSE 2.3 mph /  3.7 km/h 2.3 mph /  3.7 km/h 63 % 0 in /  0.0 mm
12:11 66.7 °F /  19.3 °C 53.8 °F /  12.1 °C 30.2 in /  1021.9 hPa ESE 4.6 mph /  7.4 km/h 4.6 mph /  7.4 km/h 63 % 0 in /  0.0 mm
12:16 66.7 °F /  19.3 °C 53.8 °F /  12.1 °C 30.2 in /  1021.9 hPa NE 4 mph /  6.4 km/h 4 mph /  6.4 km/h 63 % 0 in /  0.0 mm
12:21 67.6 °F /  19.8 °C 54.1 °F /  12.3 °C 30.2 in /  1021.9 hPa NE 2.9 mph /  4.7 km/h 2.9 mph /  4.7 km/h 62 % 0 in /  0.0 mm
12:26 68.5 °F /  20.3 °C 54.7 °F /  12.6 °C 30.2 in /  1021.9 hPa NNE 5.6 mph /  9.0 km/h 5.6 mph /  9.0 km/h 61 % 0 in /  0.0 mm
12:31 68 °F /  20.0 °C 54 °F /  12.2 °C 30.2 in /  1021.9 hPa East 4.6 mph /  7.4 km/h 4.6 mph /  7.4 km/h 61 % 0 in /  0.0 mm
12:36 68.2 °F /  20.1 °C 54.7 °F /  12.6 °C 30.2 in /  1020.9 hPa ESE 4.6 mph /  7.4 km/h 4.6 mph /  7.4 km/h 62 % 0 in /  0.0 mm
12:41 67.8 °F /  19.9 °C 54.9 °F /  12.7 °C 30.2 in /  1020.9 hPa ESE 4.6 mph /  7.4 km/h 4.6 mph /  7.4 km/h 63 % 0 in /  0.0 mm
12:46 68.4 °F /  20.2 °C 55.2 °F /  12.9 °C 30.2 in /  1020.9 hPa ESE 3.8 mph /  6.1 km/h 3.8 mph /  6.1 km/h 63 % 0 in /  0.0 mm
12:51 68.4 °F /  20.2 °C 55.8 °F /  13.2 °C 30.2 in /  1021.9 hPa NE 3.5 mph /  5.6 km/h 3.5 mph /  5.6 km/h 64 % 0 in /  0.0 mm
12:56 68.4 °F /  20.2 °C 55.8 °F /  13.2 °C 30.2 in /  1021.9 hPa ESE 6 mph /  9.7 km/h 6 mph /  9.7 km/h 64 % 0 in /  0.0 mm
13:01 68.9 °F /  20.5 °C 56.7 °F /  13.7 °C 30.2 in /  1021.9 hPa ESE 5.9 mph /  9.5 km/h 5.9 mph /  9.5 km/h 65 % 0 in /  0.0 mm
13:06 68.2 °F /  20.1 °C 55.9 °F /  13.3 °C 30.2 in /  1020.9 hPa East 10 mph /  16.1 km/h 10 mph /  16.1 km/h 65 % 0 in /  0.0 mm
13:11 68.5 °F /  20.3 °C 56.3 °F /  13.5 °C 30.2 in /  1020.9 hPa NNE 6.9 mph /  11.1 km/h 6.9 mph /  11.1 km/h 65 % 0 in /  0.0 mm
13:16 68.9 °F /  20.5 °C 56.7 °F /  13.7 °C 30.2 in /  1020.9 hPa SE 6.9 mph /  11.1 km/h 6.9 mph /  11.1 km/h 65 % 0 in /  0.0 mm
13:21 68.7 °F /  20.4 °C 56.5 °F /  13.6 °C 30.2 in /  1020.9 hPa ENE 4.6 mph /  7.4 km/h 4.6 mph /  7.4 km/h 65 % 0 in /  0.0 mm
13:26 68.9 °F /  20.5 °C 56.7 °F /  13.7 °C 30.2 in /  1020.9 hPa SSE 6.9 mph /  11.1 km/h 6.9 mph /  11.1 km/h 65 % 0 in /  0.0 mm
13:31 68.4 °F /  20.2 °C 56.1 °F /  13.4 °C 30.2 in /  1020.9 hPa East 8.1 mph /  13.0 km/h 8.1 mph /  13.0 km/h 65 % 0 in /  0.0 mm
13:36 68.2 °F /  20.1 °C 55.9 °F /  13.3 °C 30.1 in /  1019.9 hPa SSE 6.9 mph /  11.1 km/h 6.9 mph /  11.1 km/h 65 % 0 in /  0.0 mm
13:41 68.4 °F /  20.2 °C 56.7 °F /  13.7 °C 30.1 in /  1019.9 hPa ESE 6.9 mph /  11.1 km/h 6.9 mph /  11.1 km/h 66 % 0 in /  0.0 mm
13:47 68 °F /  20.0 °C 56.1 °F /  13.4 °C 30.1 in /  1019.9 hPa East 6.9 mph /  11.1 km/h 6.9 mph /  11.1 km/h 66 % 0 in /  0.0 mm
13:52 68.2 °F /  20.1 °C 56.8 °F /  13.8 °C 30.1 in /  1019.9 hPa East 4 mph /  6.4 km/h 4 mph /  6.4 km/h 67 % 0 in /  0.0 mm
13:57 68.4 °F /  20.2 °C 56.7 °F /  13.7 °C 30.1 in /  1019.9 hPa SW 3.5 mph /  5.6 km/h 3.5 mph /  5.6 km/h 66 % 0 in /  0.0 mm
14:02 69.1 °F /  20.6 °C 57.2 °F /  14.0 °C 30.1 in /  1019.9 hPa South 3.5 mph /  5.6 km/h 3.5 mph /  5.6 km/h 66 % 0 in /  0.0 mm
14:07 69.8 °F /  21.0 °C 57.6 °F /  14.2 °C 30.1 in /  1019.9 hPa ESE 4 mph /  6.4 km/h 4 mph /  6.4 km/h 65 % 0 in /  0.0 mm
14:12 70.2 °F /  21.2 °C 57.7 °F /  14.3 °C 30.1 in /  1019.9 hPa South 2.3 mph /  3.7 km/h 2.3 mph /  3.7 km/h 65 % 0 in /  0.0 mm
14:17 71.4 °F /  21.9 °C 58.3 °F /  14.6 °C 30.1 in /  1019.9 hPa ESE 8.1 mph /  13.0 km/h 8.1 mph /  13.0 km/h 63 % 0 in /  0.0 mm
14:22 72 °F /  22.2 °C 57.4 °F /  14.1 °C 30.1 in /  1019.9 hPa SW 10.4 mph /  16.7 km/h 10.4 mph /  16.7 km/h 60 % 0 in /  0.0 mm
14:27 72.5 °F /  22.5 °C 57.4 °F /  14.1 °C 30.1 in /  1019.9 hPa South 3.5 mph /  5.6 km/h 3.5 mph /  5.6 km/h 59 % 0 in /  0.0 mm
14:32 73.4 °F /  23.0 °C 58.3 °F /  14.6 °C 30.1 in /  1019.9 hPa SW 5.8 mph /  9.3 km/h 5.8 mph /  9.3 km/h 59 % 0 in /  0.0 mm
14:37 73.6 °F /  23.1 °C 58.5 °F /  14.7 °C 30.1 in /  1019.9 hPa SSW 3.5 mph /  5.6 km/h 3.5 mph /  5.6 km/h 59 % 0 in /  0.0 mm
14:42 73.8 °F /  23.2 °C 57.6 °F /  14.2 °C 30.1 in /  1019.9 hPa SSW 6.9 mph /  11.1 km/h 6.9 mph /  11.1 km/h 57 % 0 in /  0.0 mm
14:43 73.9 °F /  23.3 °C 57.7 °F /  14.3 °C 30.1 in /  1019.9 hPa SW 5.8 mph /  9.3 km/h 5.8 mph /  9.3 km/h 57 % 0 in /  0.0 mm
14:48 74.7 °F /  23.7 °C 57.9 °F /  14.4 °C 30.1 in /  1019.9 hPa SW 7.8 mph /  12.6 km/h 7.8 mph /  12.6 km/h 56 % 0 in /  0.0 mm
14:53 73.9 °F /  23.3 °C 56.8 °F /  13.8 °C 30.1 in /  1019.9 hPa WSW 6.9 mph /  11.1 km/h 6.9 mph /  11.1 km/h 55 % 0 in /  0.0 mm
14:58 73.2 °F /  22.9 °C 56.1 °F /  13.4 °C 30.1 in /  1019.9 hPa SW 7.6 mph /  12.2 km/h 7.6 mph /  12.2 km/h 55 % 0 in /  0.0 mm
15:03 73.4 °F /  23.0 °C 56.1 °F /  13.4 °C 30.1 in /  1018.8 hPa SSW 5.8 mph /  9.3 km/h 5.8 mph /  9.3 km/h 55 % 0 in /  0.0 mm
15:08 75 °F /  23.9 °C 57.2 °F /  14.0 °C 30.1 in /  1018.8 hPa West 3.5 mph /  5.6 km/h 3.5 mph /  5.6 km/h 54 % 0 in /  0.0 mm
15:13 75.9 °F /  24.4 °C 57.6 °F /  14.2 °C 30.1 in /  1018.8 hPa SW 5.8 mph /  9.3 km/h 5.8 mph /  9.3 km/h 53 % 0 in /  0.0 mm
15:18 76.3 °F /  24.6 °C 57.9 °F /  14.4 °C 30.1 in /  1019.9 hPa South 5.8 mph /  9.3 km/h 5.8 mph /  9.3 km/h 53 % 0 in /  0.0 mm
15:23 75.4 °F /  24.1 °C 56.5 °F /  13.6 °C 30.1 in /  1019.9 hPa South 2.3 mph /  3.7 km/h 2.4 mph /  3.9 km/h 52 % 0 in /  0.0 mm
15:28 75 °F /  23.9 °C 56.1 °F /  13.4 °C 30.1 in /  1019.9 hPa South 8.1 mph /  13.0 km/h 8.1 mph /  13.0 km/h 52 % 0 in /  0.0 mm
15:33 75.2 °F /  24.0 °C 56.8 °F /  13.8 °C 30.1 in /  1019.9 hPa SW 4.6 mph /  7.4 km/h 4.6 mph /  7.4 km/h 53 % 0 in /  0.0 mm
15:38 75 °F /  23.9 °C 56.7 °F /  13.7 °C 30.1 in /  1019.9 hPa SW 5.8 mph /  9.3 km/h 5.8 mph /  9.3 km/h 53 % 0 in /  0.0 mm
15:43 73.9 °F /  23.3 °C 55.8 °F /  13.2 °C 30.1 in /  1019.9 hPa North 3.5 mph /  5.6 km/h 3.5 mph /  5.6 km/h 53 % 0 in /  0.0 mm
15:48 73.9 °F /  23.3 °C 55.8 °F /  13.2 °C 30.1 in /  1019.9 hPa South 4.6 mph /  7.4 km/h 4.6 mph /  7.4 km/h 53 % 0 in /  0.0 mm
15:53 73.6 °F /  23.1 °C 55.4 °F /  13.0 °C 30.1 in /  1019.9 hPa SSE 5.8 mph /  9.3 km/h 5.8 mph /  9.3 km/h 53 % 0 in /  0.0 mm
15:58 74.3 °F /  23.5 °C 56.1 °F /  13.4 °C 30.1 in /  1019.9 hPa SW 8.1 mph /  13.0 km/h 8.1 mph /  13.0 km/h 53 % 0 in /  0.0 mm
16:03 73.8 °F /  23.2 °C 55.6 °F /  13.1 °C 30.1 in /  1018.8 hPa SW 6.9 mph /  11.1 km/h 6.9 mph /  11.1 km/h 53 % 0 in /  0.0 mm
16:08 74.7 °F /  23.7 °C 56.5 °F /  13.6 °C 30.1 in /  1018.8 hPa WSW 8.1 mph /  13.0 km/h 8.1 mph /  13.0 km/h 53 % 0 in /  0.0 mm
16:13 74.7 °F /  23.7 °C 56.5 °F /  13.6 °C 30.1 in /  1018.8 hPa SW 5.8 mph /  9.3 km/h 5.8 mph /  9.3 km/h 53 % 0 in /  0.0 mm
16:18 73.8 °F /  23.2 °C 55.6 °F /  13.1 °C 30.1 in /  1019.9 hPa WSW 5.8 mph /  9.3 km/h 5.8 mph /  9.3 km/h 53 % 0 in /  0.0 mm
16:23 74.3 °F /  23.5 °C 56.1 °F /  13.4 °C 30.1 in /  1019.9 hPa WSW 6.9 mph /  11.1 km/h 6.9 mph /  11.1 km/h 53 % 0 in /  0.0 mm
16:28 73.8 °F /  23.2 °C 55.6 °F /  13.1 °C 30.1 in /  1019.9 hPa South 5.8 mph /  9.3 km/h 5.8 mph /  9.3 km/h 53 % 0 in /  0.0 mm
16:33 73 °F /  22.8 °C 55.4 °F /  13.0 °C 30.1 in /  1019.9 hPa WSW 6.9 mph /  11.1 km/h 6.9 mph /  11.1 km/h 54 % 0 in /  0.0 mm
16:38 73 °F /  22.8 °C 55.4 °F /  13.0 °C 30.1 in /  1019.9 hPa SW 8.1 mph /  13.0 km/h 8.1 mph /  13.0 km/h 54 % 0 in /  0.0 mm
16:43 73.4 °F /  23.0 °C 55.8 °F /  13.2 °C 30.1 in /  1019.9 hPa SW 9.2 mph /  14.8 km/h 9.2 mph /  14.8 km/h 54 % 0 in /  0.0 mm
16:48 73 °F /  22.8 °C 55.9 °F /  13.3 °C 30.1 in /  1019.9 hPa SW 3.6 mph /  5.8 km/h 3.6 mph /  5.8 km/h 55 % 0 in /  0.0 mm
16:53 72.9 °F /  22.7 °C 55.8 °F /  13.2 °C 30.1 in /  1019.9 hPa SW 6.9 mph /  11.1 km/h 6.9 mph /  11.1 km/h 55 % 0 in /  0.0 mm
16:58 72.9 °F /  22.7 °C 55.8 °F /  13.2 °C 30.1 in /  1019.9 hPa SSE 8.1 mph /  13.0 km/h 8.1 mph /  13.0 km/h 55 % 0 in /  0.0 mm
17:03 75.4 °F /  24.1 °C 57.6 °F /  14.2 °C 30.1 in /  1019.9 hPa WNW 4.6 mph /  7.4 km/h 4.6 mph /  7.4 km/h 54 % 0 in /  0.0 mm
17:08 74.8 °F /  23.8 °C 57 °F /  13.9 °C 30.1 in /  1019.9 hPa WSW 8.1 mph /  13.0 km/h 8.1 mph /  13.0 km/h 54 % 0 in /  0.0 mm
17:13 73.4 °F /  23.0 °C 55.8 °F /  13.2 °C 30.1 in /  1019.9 hPa SW 9.2 mph /  14.8 km/h 9.2 mph /  14.8 km/h 54 % 0 in /  0.0 mm
17:18 72.7 °F /  22.6 °C 55.6 °F /  13.1 °C 30.1 in /  1019.9 hPa WNW 6.9 mph /  11.1 km/h 6.9 mph /  11.1 km/h 55 % 0 in /  0.0 mm
17:23 72.3 °F /  22.4 °C 55.8 °F /  13.2 °C 30.1 in /  1019.9 hPa SW 7.6 mph /  12.2 km/h 7.6 mph /  12.2 km/h 56 % 0 in /  0.0 mm
17:28 72 °F /  22.2 °C 55.4 °F /  13.0 °C 30.1 in /  1019.9 hPa SSW 7.8 mph /  12.6 km/h 7.8 mph /  12.6 km/h 56 % 0 in /  0.0 mm
17:33 71.8 °F /  22.1 °C 55.8 °F /  13.2 °C 30.1 in /  1019.9 hPa SW 4.6 mph /  7.4 km/h 4.6 mph /  7.4 km/h 57 % 0 in /  0.0 mm
17:38 72 °F /  22.2 °C 55.9 °F /  13.3 °C 30.1 in /  1019.9 hPa SSW 6.9 mph /  11.1 km/h 6.9 mph /  11.1 km/h 57 % 0 in /  0.0 mm
17:43 72 °F /  22.2 °C 55.9 °F /  13.3 °C 30.1 in /  1019.9 hPa SSW 5.8 mph /  9.3 km/h 5.8 mph /  9.3 km/h 57 % 0 in /  0.0 mm
17:48 72.1 °F /  22.3 °C 56.1 °F /  13.4 °C 30.1 in /  1019.9 hPa South 5.8 mph /  9.3 km/h 5.8 mph /  9.3 km/h 57 % 0 in /  0.0 mm
17:53 72.1 °F /  22.3 °C 56.1 °F /  13.4 °C 30.1 in /  1019.9 hPa South 4.6 mph /  7.4 km/h 4.6 mph /  7.4 km/h 57 % 0 in /  0.0 mm
17:58 72.7 °F /  22.6 °C 56.7 °F /  13.7 °C 30.1 in /  1019.9 hPa SSW 4.6 mph /  7.4 km/h 4.6 mph /  7.4 km/h 57 % 0 in /  0.0 mm
18:03 73 °F /  22.8 °C 56.8 °F /  13.8 °C 30.1 in /  1018.8 hPa South 9.2 mph /  14.8 km/h 9.2 mph /  14.8 km/h 57 % 0 in /  0.0 mm
18:08 72.9 °F /  22.7 °C 56.7 °F /  13.7 °C 30.1 in /  1018.8 hPa SW 5.8 mph /  9.3 km/h 5.8 mph /  9.3 km/h 57 % 0 in /  0.0 mm
18:13 72.5 °F /  22.5 °C 56.5 °F /  13.6 °C 30.1 in /  1018.8 hPa SSW 10.4 mph /  16.7 km/h 10.4 mph /  16.7 km/h 57 % 0 in /  0.0 mm
18:14 72.5 °F /  22.5 °C 56.5 °F /  13.6 °C 30.1 in /  1018.8 hPa WSW 6.9 mph /  11.1 km/h 6.9 mph /  11.1 km/h 57 % 0 in /  0.0 mm
18:19 72.7 °F /  22.6 °C 56.7 °F /  13.7 °C 30.1 in /  1018.8 hPa WSW 8.1 mph /  13.0 km/h 8.1 mph /  13.0 km/h 57 % 0 in /  0.0 mm
18:24 73 °F /  22.8 °C 56.8 °F /  13.8 °C 30.1 in /  1018.8 hPa SSW 5.4 mph /  8.7 km/h 5.4 mph /  8.7 km/h 57 % 0 in /  0.0 mm
18:29 73 °F /  22.8 °C 56.8 °F /  13.8 °C 30.1 in /  1018.8 hPa SSW 6.9 mph /  11.1 km/h 6.9 mph /  11.1 km/h 57 % 0 in /  0.0 mm
18:34 73.2 °F /  22.9 °C 57 °F /  13.9 °C 30.1 in /  1018.8 hPa WSW 6.9 mph /  11.1 km/h 6.9 mph /  11.1 km/h 57 % 0 in /  0.0 mm
18:39 72.9 °F /  22.7 °C 56.7 °F /  13.7 °C 30.1 in /  1018.8 hPa SW 3.5 mph /  5.6 km/h 3.5 mph /  5.6 km/h 57 % 0 in /  0.0 mm
18:44 72.3 °F /  22.4 °C 56.1 °F /  13.4 °C 30.1 in /  1018.8 hPa WSW 8.1 mph /  13.0 km/h 8.1 mph /  13.0 km/h 57 % 0 in /  0.0 mm
18:49 72.5 °F /  22.5 °C 56.8 °F /  13.8 °C 30.1 in /  1018.8 hPa SSW 3.8 mph /  6.1 km/h 3.8 mph /  6.1 km/h 58 % 0 in /  0.0 mm
18:54 72.1 °F /  22.3 °C 56.5 °F /  13.6 °C 30.1 in /  1018.8 hPa SW 3.5 mph /  5.6 km/h 3.6 mph /  5.8 km/h 58 % 0 in /  0.0 mm
18:59 71.1 °F /  21.7 °C 55.9 °F /  13.3 °C 30.1 in /  1018.8 hPa SSW 5.8 mph /  9.3 km/h 5.8 mph /  9.3 km/h 59 % 0 in /  0.0 mm
19:04 70.7 °F /  21.5 °C 55.8 °F /  13.2 °C 30.1 in /  1018.8 hPa SW 5.8 mph /  9.3 km/h 5.8 mph /  9.3 km/h 59 % 0 in /  0.0 mm
19:09 70.2 °F /  21.2 °C 55.6 °F /  13.1 °C 30.1 in /  1018.8 hPa SW 8.1 mph /  13.0 km/h 8.1 mph /  13.0 km/h 60 % 0 in /  0.0 mm
19:14 69.4 °F /  20.8 °C 55.4 °F /  13.0 °C 30.1 in /  1018.8 hPa SSW 6.9 mph /  11.1 km/h 6.9 mph /  11.1 km/h 61 % 0 in /  0.0 mm
19:19 69.4 °F /  20.8 °C 55.4 °F /  13.0 °C 30.1 in /  1018.8 hPa SW 6 mph /  9.7 km/h 6 mph /  9.7 km/h 61 % 0 in /  0.0 mm
19:24 69.6 °F /  20.9 °C 55.9 °F /  13.3 °C 30.1 in /  1018.8 hPa SW 7.4 mph /  11.9 km/h 7.4 mph /  11.9 km/h 62 % 0 in /  0.0 mm
19:29 69.4 °F /  20.8 °C 55.9 °F /  13.3 °C 30.1 in /  1018.8 hPa SW 4.6 mph /  7.4 km/h 4.6 mph /  7.4 km/h 62 % 0 in /  0.0 mm
19:34 69.4 °F /  20.8 °C 55.9 °F /  13.3 °C 30.1 in /  1018.8 hPa SW 6.9 mph /  11.1 km/h 6.9 mph /  11.1 km/h 62 % 0 in /  0.0 mm
19:39 69.4 °F /  20.8 °C 56.3 °F /  13.5 °C 30.1 in /  1018.8 hPa SW 3.5 mph /  5.6 km/h 3.5 mph /  5.6 km/h 63 % 0 in /  0.0 mm
19:44 69.4 °F /  20.8 °C 56.3 °F /  13.5 °C 30.1 in /  1018.8 hPa SW 8.1 mph /  13.0 km/h 8.1 mph /  13.0 km/h 63 % 0 in /  0.0 mm
19:49 69.3 °F /  20.7 °C 56.1 °F /  13.4 °C 30.1 in /  1018.8 hPa SW 4.6 mph /  7.4 km/h 4.6 mph /  7.4 km/h 63 % 0 in /  0.0 mm
19:54 69.3 °F /  20.7 °C 56.1 °F /  13.4 °C 30.1 in /  1018.8 hPa SW 4.6 mph /  7.4 km/h 4.6 mph /  7.4 km/h 63 % 0 in /  0.0 mm
19:59 69.3 °F /  20.7 °C 56.1 °F /  13.4 °C 30.1 in /  1018.8 hPa SW 4.6 mph /  7.4 km/h 4.6 mph /  7.4 km/h 63 % 0 in /  0.0 mm
20:04 68.9 °F /  20.5 °C 56.1 °F /  13.4 °C 30.1 in /  1018.8 hPa SW 3.8 mph /  6.1 km/h 3.8 mph /  6.1 km/h 64 % 0 in /  0.0 mm
20:05 68.9 °F /  20.5 °C 56.1 °F /  13.4 °C 30.1 in /  1018.8 hPa SSE 3.5 mph /  5.6 km/h 3.5 mph /  5.6 km/h 64 % 0 in /  0.0 mm
20:10 68.7 °F /  20.4 °C 55.9 °F /  13.3 °C 30.1 in /  1018.8 hPa WSW 3.8 mph /  6.1 km/h 3.8 mph /  6.1 km/h 64 % 0 in /  0.0 mm
20:15 68.5 °F /  20.3 °C 55.9 °F /  13.3 °C 30.1 in /  1018.8 hPa SW 5.8 mph /  9.3 km/h 5.8 mph /  9.3 km/h 64 % 0 in /  0.0 mm
20:20 68.5 °F /  20.3 °C 55.9 °F /  13.3 °C 30.1 in /  1018.8 hPa SW 3.5 mph /  5.6 km/h 3.5 mph /  5.6 km/h 64 % 0 in /  0.0 mm
20:25 68.4 °F /  20.2 °C 55.8 °F /  13.2 °C 30.1 in /  1018.8 hPa SSW 4.6 mph /  7.4 km/h 4.6 mph /  7.4 km/h 64 % 0 in /  0.0 mm
20:30 68.2 °F /  20.1 °C 55.9 °F /  13.3 °C 30.1 in /  1018.8 hPa South 4.6 mph /  7.4 km/h 4.6 mph /  7.4 km/h 65 % 0 in /  0.0 mm
20:35 68.2 °F /  20.1 °C 55.9 °F /  13.3 °C 30.1 in /  1019.9 hPa SW 5.8 mph /  9.3 km/h 5.8 mph /  9.3 km/h 65 % 0 in /  0.0 mm
20:40 68 °F /  20.0 °C 55.8 °F /  13.2 °C 30.1 in /  1019.9 hPa WSW 3.5 mph /  5.6 km/h 3.5 mph /  5.6 km/h 65 % 0 in /  0.0 mm
20:45 68 °F /  20.0 °C 55.8 °F /  13.2 °C 30.1 in /  1019.9 hPa SSW 2.3 mph /  3.7 km/h   65 % 0 in /  0.0 mm
20:50 68 °F /  20.0 °C 56.1 °F /  13.4 °C 30.1 in /  1018.8 hPa SW 1.6 mph /  2.6 km/h   66 % 0 in /  0.0 mm
20:55 68 °F /  20.0 °C 55.8 °F /  13.2 °C 30.1 in /  1018.8 hPa SW 3.5 mph /  5.6 km/h 3.5 mph /  5.6 km/h 65 % 0 in /  0.0 mm
21:00 67.8 °F /  19.9 °C 55.9 °F /  13.3 °C 30.1 in /  1018.8 hPa SSW 3.5 mph /  5.6 km/h 3.5 mph /  5.6 km/h 66 % 0 in /  0.0 mm
21:05 67.5 °F /  19.7 °C 55.8 °F /  13.2 °C 30.1 in /  1019.9 hPa SSW 4.6 mph /  7.4 km/h 4.6 mph /  7.4 km/h 66 % 0 in /  0.0 mm
21:10 67.3 °F /  19.6 °C 55.9 °F /  13.3 °C 30.1 in /  1019.9 hPa WSW 5.8 mph /  9.3 km/h 5.8 mph /  9.3 km/h 67 % 0 in /  0.0 mm
21:15 67.1 °F /  19.5 °C 55.8 °F /  13.2 °C 30.1 in /  1019.9 hPa SW 3.5 mph /  5.6 km/h 3.5 mph /  5.6 km/h 67 % 0 in /  0.0 mm
21:20 66.7 °F /  19.3 °C 55.8 °F /  13.2 °C 30.1 in /  1019.9 hPa WSW 3.5 mph /  5.6 km/h 3.5 mph /  5.6 km/h 68 % 0 in /  0.0 mm
21:25 66.6 °F /  19.2 °C 55.8 °F /  13.2 °C 30.1 in /  1019.9 hPa SW 2.3 mph /  3.7 km/h 2.3 mph /  3.7 km/h 68 % 0 in /  0.0 mm
21:30 66.4 °F /  19.1 °C 55.6 °F /  13.1 °C 30.1 in /  1019.9 hPa SSW 3.5 mph /  5.6 km/h 3.5 mph /  5.6 km/h 68 % 0 in /  0.0 mm
21:35 66 °F /  18.9 °C 55.9 °F /  13.3 °C 30.1 in /  1019.9 hPa SSW 4.6 mph /  7.4 km/h 4.6 mph /  7.4 km/h 70 % 0 in /  0.0 mm
21:40 65.8 °F /  18.8 °C 55.8 °F /  13.2 °C 30.1 in /  1019.9 hPa SW 2.3 mph /  3.7 km/h 2.3 mph /  3.7 km/h 70 % 0 in /  0.0 mm
21:45 65.7 °F /  18.7 °C 55.6 °F /  13.1 °C 30.1 in /  1019.9 hPa WSW 2.4 mph /  3.9 km/h 2.4 mph /  3.9 km/h 70 % 0 in /  0.0 mm
21:50 65.5 °F /  18.6 °C 55.8 °F /  13.2 °C 30.1 in /  1019.9 hPa WSW 3.5 mph /  5.6 km/h 3.5 mph /  5.6 km/h 71 % 0 in /  0.0 mm
21:55 65.5 °F /  18.6 °C 55.8 °F /  13.2 °C 30.1 in /  1019.9 hPa SW 2.3 mph /  3.7 km/h 2.3 mph /  3.7 km/h 71 % 0 in /  0.0 mm
22:00 65.3 °F /  18.5 °C 55.9 °F /  13.3 °C 30.1 in /  1019.9 hPa SW 1.4 mph /  2.3 km/h 1.4 mph /  2.3 km/h 72 % 0 in /  0.0 mm
22:05 65.3 °F /  18.5 °C 55.9 °F /  13.3 °C 30.1 in /  1019.9 hPa WSW 2.3 mph /  3.7 km/h 2.3 mph /  3.7 km/h 72 % 0 in /  0.0 mm
22:10 65.1 °F /  18.4 °C 55.9 °F /  13.3 °C 30.1 in /  1019.9 hPa SW 2.3 mph /  3.7 km/h 2.3 mph /  3.7 km/h 72 % 0 in /  0.0 mm
22:15 65.1 °F /  18.4 °C 56.1 °F /  13.4 °C 30.1 in /  1019.9 hPa SW 1.6 mph /  2.6 km/h   73 % 0 in /  0.0 mm
22:20 64.9 °F /  18.3 °C 56.1 °F /  13.4 °C 30.1 in /  1019.9 hPa SW 2.3 mph /  3.7 km/h 2.3 mph /  3.7 km/h 73 % 0 in /  0.0 mm
22:23 64.9 °F /  18.3 °C 56.1 °F /  13.4 °C 30.1 in /  1019.9 hPa SW 3.5 mph /  5.6 km/h 3.5 mph /  5.6 km/h 73 % 0 in /  0.0 mm
22:28 64.9 °F /  18.3 °C 56.1 °F /  13.4 °C 30.1 in /  1019.9 hPa SW 1.2 mph /  1.9 km/h 1.2 mph /  1.9 km/h 73 % 0 in /  0.0 mm
22:33 64.8 °F /  18.2 °C 56.3 °F /  13.5 °C 30.1 in /  1019.9 hPa WSW 1.2 mph /  1.9 km/h   74 % 0 in /  0.0 mm
22:38 64.8 °F /  18.2 °C 56.3 °F /  13.5 °C 30.1 in /  1019.9 hPa SW 1.2 mph /  1.9 km/h 1.2 mph /  1.9 km/h 74 % 0 in /  0.0 mm
22:43 64.8 °F /  18.2 °C 56.3 °F /  13.5 °C 30.1 in /  1019.9 hPa SW 1.2 mph /  1.9 km/h   74 % 0 in /  0.0 mm
22:48 64.6 °F /  18.1 °C 56.1 °F /  13.4 °C 30.1 in /  1019.9 hPa SSW 1.2 mph /  1.9 km/h 1.2 mph /  1.9 km/h 74 % 0 in /  0.0 mm
22:53 64.4 °F /  18.0 °C 55.9 °F /  13.3 °C 30.1 in /  1019.9 hPa WSW 1.6 mph /  2.6 km/h 1.6 mph /  2.6 km/h 74 % 0 in /  0.0 mm
22:58 64.4 °F /  18.0 °C 56.3 °F /  13.5 °C 30.1 in /  1019.9 hPa WSW 2 mph /  3.2 km/h 2 mph /  3.2 km/h 75 % 0 in /  0.0 mm
23:03 64.4 °F /  18.0 °C 56.3 °F /  13.5 °C 30.1 in /  1019.9 hPa WSW 2.3 mph /  3.7 km/h 2.3 mph /  3.7 km/h 75 % 0 in /  0.0 mm
23:08 64.2 °F /  17.9 °C 56.1 °F /  13.4 °C 30.1 in /  1019.9 hPa WSW 1.2 mph /  1.9 km/h 1.2 mph /  1.9 km/h 75 % 0 in /  0.0 mm
23:13 64.2 °F /  17.9 °C 56.1 °F /  13.4 °C 30.1 in /  1019.9 hPa SW 2.3 mph /  3.7 km/h 2.3 mph /  3.7 km/h 75 % 0 in /  0.0 mm
23:18 64.2 °F /  17.9 °C 56.1 °F /  13.4 °C 30.1 in /  1019.9 hPa West 2.3 mph /  3.7 km/h 2.3 mph /  3.7 km/h 75 % 0 in /  0.0 mm
23:23 64 °F /  17.8 °C 56.3 °F /  13.5 °C 30.1 in /  1019.9 hPa WSW 2.3 mph /  3.7 km/h 2.3 mph /  3.7 km/h 76 % 0 in /  0.0 mm
23:28 64 °F /  17.8 °C 56.3 °F /  13.5 °C 30.1 in /  1019.9 hPa WSW 2.3 mph /  3.7 km/h 2.3 mph /  3.7 km/h 76 % 0 in /  0.0 mm
23:33 63.9 °F /  17.7 °C 56.1 °F /  13.4 °C 30.1 in /  1019.9 hPa WSW 1.2 mph /  1.9 km/h   76 % 0 in /  0.0 mm
23:38 63.9 °F /  17.7 °C 56.1 °F /  13.4 °C 30.1 in /  1019.9 hPa WSW 2.3 mph /  3.7 km/h 2.3 mph /  3.7 km/h 76 % 0 in /  0.0 mm
23:43 63.9 °F /  17.7 °C 56.5 °F /  13.6 °C 30.1 in /  1019.9 hPa WSW 1.2 mph /  1.9 km/h 1.2 mph /  1.9 km/h 77 % 0 in /  0.0 mm
23:48 63.7 °F /  17.6 °C 56.3 °F /  13.5 °C 30.1 in /  1019.9 hPa SW 1.2 mph /  1.9 km/h   77 % 0 in /  0.0 mm
23:53 63.9 °F /  17.7 °C 56.5 °F /  13.6 °C 30.1 in /  1019.9 hPa SW 1.2 mph /  1.9 km/h   77 % 0 in /  0.0 mm
23:58 63.9 °F /  17.7 °C 56.8 °F /  13.8 °C 30.1 in /  1019.9 hPa WSW 1.6 mph /  2.6 km/h 1.6 mph /  2.6 km/h 78 % 0 in /  0.0 mm
Meteo Sesrovires
Elogis d' Weather Underground - 3.5 mb

Guio original per  Jim McMurry - jmcmurry@mwt.net Adaptat per a la plantilla per  Wim van der Kuil - Leuven-Template.eu

Trobareu la nostra informacio del temps tambe a:

Weather Underground

AWEKAS